Time;durP1;ratioP1;P1;durP2;ratioP2;P2;SDS_P1;SDS_P2;PMS_P1;PMS_P2;Temp;Humidity;BMP_temperature;BMP_pressure;BME280_temperature;BME280_humidity;BME280_pressure;Samples;Min_cycle;Max_cycle;Signal;HPM_P1;HPM_P2
2021/06/19 00:00:42;;;;;;;9.82;6.40;;;;;;;22.79;62.29;100173.91;5134585;27;20046;-72
2021/06/19 00:03:10;;;;;;;9.23;6.50;;;;;;;22.81;62.12;100171.84;5134710;27;20039;-72
2021/06/19 00:05:42;;;;;;;11.48;7.03;;;;;;;22.72;62.45;100172.91;5134535;27;20233;-73
2021/06/19 00:08:12;;;;;;;10.32;6.60;;;;;;;22.68;62.93;100170.69;5134904;27;20146;-72
2021/06/19 00:10:41;;;;;;;12.73;7.03;;;;;;;22.50;63.70;100174.47;5116463;27;20082;-73
2021/06/19 00:13:09;;;;;;;11.88;6.47;;;;;;;22.48;63.75;100170.19;5134585;27;20381;-73
2021/06/19 00:15:37;;;;;;;12.35;6.82;;;;;;;22.65;63.16;100155.56;5134385;27;20043;-73
2021/06/19 00:18:06;;;;;;;9.48;6.80;;;;;;;22.79;62.60;100173.06;5134656;27;20066;-72
2021/06/19 00:20:35;;;;;;;10.75;6.88;;;;;;;22.64;63.08;100163.91;5133934;27;20067;-73
2021/06/19 00:23:04;;;;;;;11.48;6.97;;;;;;;22.56;63.64;100167.47;5134487;27;20043;-73
2021/06/19 00:25:32;;;;;;;10.65;6.63;;;;;;;22.53;63.68;100160.50;5133940;27;20043;-74
2021/06/19 00:28:01;;;;;;;10.55;7.03;;;;;;;22.57;63.73;100155.56;5134635;27;20050;-74
2021/06/19 00:30:29;;;;;;;10.55;6.90;;;;;;;22.35;64.55;100165.28;5133923;27;20058;-74
2021/06/19 00:32:57;;;;;;;11.68;6.95;;;;;;;22.22;65.25;100165.81;5134312;27;20084;-74
2021/06/19 00:35:26;;;;;;;9.18;7.30;;;;;;;22.34;64.40;100152.72;5134001;27;20081;-74
2021/06/19 00:37:54;;;;;;;11.43;6.97;;;;;;;22.49;63.93;100156.47;5134209;27;20051;-74
2021/06/19 00:40:24;;;;;;;10.48;7.07;;;;;;;22.44;63.91;100152.53;5133885;27;20442;-83
2021/06/19 00:42:58;;;;;;;11.10;6.80;;;;;;;22.35;64.30;100150.84;5134090;27;20461;-74
2021/06/19 00:45:26;;;;;;;;;;;;;;;22.33;64.42;100144.75;5134329;27;20441;-75
2021/06/19 00:47:55;;;;;;;12.45;6.75;;;;;;;22.25;64.96;100154.59;5134278;27;19976;-75
2021/06/19 00:50:25;;;;;;;9.85;6.95;;;;;;;22.21;65.22;100145.09;5133633;27;20050;-81
2021/06/19 00:52:55;;;;;;;9.18;6.90;;;;;;;22.10;65.82;100152.69;5134013;27;20043;-73
2021/06/19 00:55:24;;;;;;;9.50;6.78;;;;;;;22.11;65.53;100152.56;5133736;27;20053;-80
2021/06/19 00:57:53;;;;;;;12.32;7.07;;;;;;;22.23;64.89;100153.91;5133829;27;20046;-72
2021/06/19 01:00:22;;;;;;;13.23;7.40;;;;;;;22.07;65.54;100159.31;5134049;28;20484;-71
2021/06/19 01:02:54;;;;;;;11.20;6.30;;;;;;;21.97;65.73;100154.03;5133916;28;20122;-72
2021/06/19 01:05:24;;;;;;;11.52;6.95;;;;;;;22.01;65.68;100146.41;5134085;28;20051;-71
2021/06/19 01:07:53;;;;;;;9.98;6.80;;;;;;;22.04;65.74;100148.78;5133925;28;20047;-72
2021/06/19 01:10:22;;;;;;;9.13;6.35;;;;;;;22.09;65.77;100151.00;5133995;28;20128;-72
2021/06/19 01:12:51;;;;;;;10.73;6.65;;;;;;;22.14;65.42;100149.50;5133914;28;20039;-73
2021/06/19 01:15:21;;;;;;;10.10;6.50;;;;;;;22.05;65.88;100153.19;5134349;28;20051;-72
2021/06/19 01:17:49;;;;;;;9.25;7.20;;;;;;;22.10;65.53;100152.69;5133439;28;20043;-72
2021/06/19 01:20:19;;;;;;;10.25;6.80;;;;;;;21.90;66.39;100160.28;5133775;28;20046;-72
2021/06/19 01:22:53;;;;;;;9.93;6.82;;;;;;;21.80;66.48;100156.88;5133462;28;20043;-71
2021/06/19 01:25:26;;;;;;;;;;;;;;;21.69;67.15;100153.47;5134260;28;20043;-70
2021/06/19 01:27:55;;;;;;;10.50;7.05;;;;;;;21.77;66.78;100165.38;5135415;28;19926;-73
2021/06/19 01:30:26;;;;;;;10.23;7.05;;;;;;;21.82;66.21;100169.28;5140296;28;20043;-73
2021/06/19 01:32:54;;;;;;;10.10;6.88;;;;;;;21.79;66.52;100152.47;5134122;28;20133;-71
2021/06/19 01:35:24;;;;;;;10.27;7.13;;;;;;;21.73;66.38;100147.72;5133600;28;20096;-71
2021/06/19 01:37:54;;;;;;;11.30;6.88;;;;;;;21.81;65.65;100150.44;5133838;27;20381;-71
2021/06/19 01:40:26;;;;;;;10.13;6.88;;;;;;;21.84;65.53;100152.84;5137828;27;20425;-71
2021/06/19 01:42:55;;;;;;;9.93;7.00;;;;;;;21.88;65.64;100156.91;5137879;27;20098;-71
2021/06/19 01:45:26;;;;;;;9.75;6.93;;;;;;;21.66;66.30;100148.38;5137557;27;20051;-72
2021/06/19 01:47:55;;;;;;;9.23;7.10;;;;;;;21.69;66.71;100148.03;5137799;27;20047;-72
2021/06/19 01:50:26;;;;;;;12.57;6.82;;;;;;;21.83;65.84;100149.28;5137621;27;20481;-72
2021/06/19 01:52:55;;;;;;;8.10;6.90;;;;;;;21.58;67.11;100145.63;5137472;27;20039;-73
2021/06/19 01:55:25;;;;;;;9.05;7.07;;;;;;;21.44;68.12;100143.56;5137523;27;20100;-72
2021/06/19 01:57:55;;;;;;;12.65;7.57;;;;;;;21.33;68.69;100143.88;5137322;27;20047;-72
2021/06/19 02:00:24;;;;;;;9.95;7.10;;;;;;;21.32;68.84;100144.88;5137079;27;20043;-74
2021/06/19 02:02:54;;;;;;;8.75;6.80;;;;;;;21.28;68.42;100148.94;5137496;27;20049;-74
2021/06/19 02:05:23;;;;;;;9.63;6.80;;;;;;;21.35;67.92;100150.84;5137112;27;20078;-74
2021/06/19 02:07:53;;;;;;;10.75;7.18;;;;;;;21.41;67.84;100152.88;5136739;27;20067;-73
2021/06/19 02:10:25;;;;;;;12.13;7.28;;;;;;;21.42;68.16;100159.16;5136890;27;20035;-72
2021/06/19 02:12:54;;;;;;;11.57;7.03;;;;;;;21.38;68.26;100153.22;5137202;27;20043;-72
2021/06/19 02:15:24;;;;;;;9.77;6.78;;;;;;;21.45;67.66;100149.84;5137049;27;20096;-73
2021/06/19 02:17:54;;;;;;;8.90;7.15;;;;;;;21.49;67.26;100157.47;5136896;27;20446;-73
2021/06/19 02:20:24;;;;;;;9.27;7.18;;;;;;;21.45;67.47;100145.28;5137127;27;20090;-72
2021/06/19 02:22:54;;;;;;;11.65;7.03;;;;;;;21.43;67.63;100158.16;5136515;27;20043;-72
2021/06/19 02:25:27;;;;;;;10.25;6.95;;;;;;;21.51;67.29;100155.44;5136547;27;20487;-75
2021/06/19 02:27:57;;;;;;;9.57;6.95;;;;;;;21.37;67.81;100158.81;5136828;27;20046;-74
2021/06/19 02:30:28;;;;;;;11.82;7.22;;;;;;;21.38;67.31;100153.22;5136873;27;20054;-74
2021/06/19 02:32:58;;;;;;;11.00;7.10;;;;;;;21.37;67.30;100159.66;5136727;27;20123;-74
2021/06/19 02:35:28;;;;;;;12.38;7.00;;;;;;;21.22;68.05;100161.25;5136481;27;20119;-74
2021/06/19 02:37:57;;;;;;;10.07;7.40;;;;;;;21.32;67.40;100162.00;5136826;27;20078;-74
2021/06/19 02:40:27;;;;;;;9.23;7.30;;;;;;;21.23;68.02;100162.09;5118297;27;20096;-74
2021/06/19 02:42:56;;;;;;;11.68;7.22;;;;;;;21.26;67.73;100167.22;5136337;27;20035;-73
2021/06/19 02:45:25;;;;;;;8.02;6.75;;;;;;;21.21;67.76;100159.53;5136496;27;20039;-73
2021/06/19 02:47:55;;;;;;;10.10;7.10;;;;;;;21.25;67.58;100152.81;5135877;27;20047;-73
2021/06/19 02:50:26;;;;;;;9.93;7.35;;;;;;;21.27;67.60;100158.09;5135753;27;20126;-73
2021/06/19 02:52:55;;;;;;;12.63;6.97;;;;;;;21.26;67.86;100168.09;5136000;27;20068;-74
2021/06/19 02:55:29;;;;;;;10.52;6.97;;;;;;;21.21;68.19;100166.84;5136245;27;20051;-71
2021/06/19 02:57:58;;;;;;;9.70;7.38;;;;;;;21.18;68.23;100167.16;5136136;27;20050;-71
2021/06/19 03:00:26;;;;;;;11.15;6.78;;;;;;;21.22;68.36;100171.25;5135935;27;20078;-72
2021/06/19 03:02:55;;;;;;;12.05;7.47;;;;;;;21.24;68.08;100169.25;5135854;27;20072;-73
2021/06/19 03:05:27;;;;;;;10.20;7.65;;;;;;;21.26;67.85;100165.38;5135777;27;20039;-73
2021/06/19 03:07:55;;;;;;;10.65;7.25;;;;;;;21.25;67.88;100165.50;5135744;27;20484;-72
2021/06/19 03:10:28;;;;;;;11.98;7.40;;;;;;;21.31;67.65;100163.00;5135895;27;20503;-71
2021/06/19 03:12:56;;;;;;;12.30;7.97;;;;;;;21.44;67.44;100168.00;5135619;27;20484;-73
2021/06/19 03:15:25;;;;;;;9.93;7.00;;;;;;;21.49;67.19;100165.63;5136094;27;20044;-73
2021/06/19 03:17:54;;;;;;;10.23;7.13;;;;;;;21.46;67.41;100171.38;5135522;27;20039;-72
2021/06/19 03:20:22;;;;;;;11.82;7.65;;;;;;;21.49;67.41;100171.06;5135862;27;20039;-73
2021/06/19 03:22:53;;;;;;;13.85;7.50;;;;;;;21.69;66.49;100175.19;5135305;27;20096;-73
2021/06/19 03:25:25;;;;;;;11.10;7.30;;;;;;;21.81;66.13;100173.03;5135480;27;20050;-74
2021/06/19 03:27:56;;;;;;;9.30;6.88;;;;;;;21.70;66.76;100166.00;5135539;27;20043;-74
2021/06/19 03:30:26;;;;;;;9.80;7.15;;;;;;;21.96;65.52;100171.34;5135774;27;20550;-73
2021/06/19 03:32:55;;;;;;;11.40;7.03;;;;;;;22.05;65.20;100158.63;5135321;27;20073;-74
2021/06/19 03:35:23;;;;;;;12.50;7.70;;;;;;;22.42;64.07;100165.47;5135294;27;20042;-74
2021/06/19 03:37:53;;;;;;;9.98;7.32;;;;;;;22.83;62.34;100169.81;5134959;27;20047;-73
2021/06/19 03:40:21;;;;;;;11.85;6.75;;;;;;;23.65;59.97;100170.44;5135293;27;20043;-74
2021/06/19 03:42:50;;;;;;;12.10;6.60;;;;;;;24.30;57.53;100173.72;5135156;27;20043;-74
2021/06/19 03:45:22;;;;;;;9.10;6.97;;;;;;;24.89;55.66;100169.25;5135334;27;20043;-74
2021/06/19 03:47:53;;;;;;;11.85;7.15;;;;;;;25.11;54.87;100156.63;5134860;27;20046;-74
2021/06/19 03:50:24;;;;;;;8.85;6.72;;;;;;;25.50;53.57;100175.41;5134970;27;20035;-74
2021/06/19 03:52:54;;;;;;;9.00;6.50;;;;;;;25.89;52.40;100168.75;5134616;27;20070;-73
2021/06/19 03:55:23;;;;;;;10.30;6.63;;;;;;;26.12;51.75;100174.88;5135234;27;20046;-74
2021/06/19 03:57:53;;;;;;;8.85;6.30;;;;;;;26.29;51.09;100171.88;5093893;28;20127;-74
2021/06/19 04:00:23;;;;;;;8.32;6.28;;;;;;;26.74;49.84;100168.72;5093713;28;20058;-73
2021/06/19 04:02:52;;;;;;;9.00;6.25;;;;;;;26.96;49.33;100164.03;5093176;28;20062;-71
2021/06/19 04:05:21;;;;;;;9.10;5.88;;;;;;;27.54;48.09;100166.47;5093676;28;20044;-72
2021/06/19 04:07:49;;;;;;;11.35;6.47;;;;;;;27.42;47.80;100160.75;5092714;28;20044;-73
2021/06/19 04:10:19;;;;;;;10.93;6.68;;;;;;;27.92;46.28;100162.19;5093710;28;20471;-74
2021/06/19 04:12:49;;;;;;;9.25;6.60;;;;;;;28.35;45.56;100161.00;5093540;28;20119;-73
2021/06/19 04:15:18;;;;;;;9.85;6.43;;;;;;;28.42;45.65;100165.47;5094009;28;20492;-74
2021/06/19 04:17:48;;;;;;;7.93;6.05;;;;;;;28.50;45.17;100168.00;5093800;28;20043;-72
2021/06/19 04:20:17;;;;;;;10.10;6.43;;;;;;;28.69;44.63;100159.97;5093622;28;20047;-72
2021/06/19 04:22:47;;;;;;;8.32;6.13;;;;;;;28.81;44.16;100158.25;5093335;28;20097;-74
2021/06/19 04:25:17;;;;;;;8.88;6.13;;;;;;;28.87;44.21;100162.91;5093414;28;20043;-72
2021/06/19 04:27:47;;;;;;;8.43;5.70;;;;;;;29.12;43.39;100163.09;5093136;28;20078;-72
2021/06/19 04:30:16;;;;;;;7.30;5.55;;;;;;;29.33;43.18;100167.44;5093301;28;20072;-74
2021/06/19 04:32:47;;;;;;;7.97;6.13;;;;;;;29.67;42.15;100166.31;5093088;28;20064;-73
2021/06/19 04:35:16;;;;;;;8.20;5.97;;;;;;;29.55;42.37;100174.41;5093362;28;20504;-72
2021/06/19 04:37:48;;;;;;;9.30;6.00;;;;;;;30.01;40.53;100167.78;5091714;28;20048;-73
2021/06/19 04:40:21;;;;;;;8.53;5.67;;;;;;;30.54;40.03;100164.69;5093286;28;20520;-74
2021/06/19 04:42:57;;;;;;;7.43;5.80;;;;;;;29.75;42.12;100168.81;5093020;28;20489;-73
2021/06/19 04:45:27;;;;;;;10.10;5.82;;;;;;;30.43;40.24;100168.19;5093767;28;20036;-74
2021/06/19 04:48:00;;;;;;;8.45;5.53;;;;;;;30.35;40.31;100176.72;5093217;28;20048;-74
2021/06/19 04:50:29;;;;;;;7.63;5.38;;;;;;;30.08;40.65;100168.63;5093300;28;20400;-74
2021/06/19 04:52:58;;;;;;;9.00;5.68;;;;;;;30.36;39.77;100173.72;5092825;28;20101;-74
2021/06/19 04:55:26;;;;;;;6.60;5.65;;;;;;;30.96;38.56;100162.22;5093551;28;20050;-74
2021/06/19 04:57:57;;;;;;;8.23;5.75;;;;;;;30.72;39.16;100170.28;5133949;27;20040;-74
2021/06/19 05:00:27;;;;;;;8.40;5.55;;;;;;;31.43;37.52;100168.09;5134268;28;20104;-74
2021/06/19 05:02:56;;;;;;;7.63;5.65;;;;;;;31.13;37.82;100174.31;5133693;28;20051;-74
2021/06/19 05:05:28;;;;;;;9.07;5.60;;;;;;;31.37;37.83;100163.50;5133929;28;20074;-76
2021/06/19 05:07:56;;;;;;;8.00;5.47;;;;;;;31.58;37.28;100172.13;5133966;28;20043;-75
2021/06/19 05:10:26;;;;;;;8.90;5.50;;;;;;;31.77;37.21;100177.66;5134212;28;20040;-73
2021/06/19 05:12:54;;;;;;;9.20;5.43;;;;;;;31.75;37.28;100175.13;5135637;27;20039;-73
2021/06/19 05:15:25;;;;;;;6.43;4.97;;;;;;;32.32;35.63;100172.81;5138330;27;20039;-72
2021/06/19 05:17:54;;;;;;;7.88;5.22;;;;;;;32.39;35.63;100179.09;5137738;27;20039;-73
2021/06/19 05:20:26;;;;;;;7.10;5.20;;;;;;;32.39;35.82;100184.59;5137923;27;20039;-73
2021/06/19 05:22:56;;;;;;;9.15;5.20;;;;;;;32.38;35.85;100187.59;5137847;27;20039;-73
2021/06/19 05:25:24;;;;;;;6.15;4.93;;;;;;;32.95;34.75;100177.72;5138021;27;20107;-73
2021/06/19 05:27:53;;;;;;;8.38;5.18;;;;;;;33.16;34.86;100184.56;5119100;27;20055;-73
2021/06/19 05:30:22;;;;;;;8.77;5.45;;;;;;;33.10;35.00;100179.16;5138127;27;20054;-73
2021/06/19 05:32:50;;;;;;;8.18;5.38;;;;;;;33.19;34.45;100173.00;5118859;27;20118;-73
2021/06/19 05:35:18;;;;;;;10.45;5.40;;;;;;;32.92;34.82;100172.69;5137734;27;20070;-73
2021/06/19 05:37:47;;;;;;;6.82;4.80;;;;;;;32.44;34.92;100182.00;5137570;27;20395;-73
2021/06/19 05:40:19;;;;;;;7.40;4.72;;;;;;;32.77;34.43;100180.56;5137522;27;20043;-73
2021/06/19 05:42:48;;;;;;;8.90;5.20;;;;;;;33.14;34.12;100175.69;5137313;27;20441;-75
2021/06/19 05:45:16;;;;;;;9.73;5.15;;;;;;;33.62;33.23;100176.47;5137470;27;20039;-74
2021/06/19 05:47:45;;;;;;;9.25;4.80;;;;;;;33.73;32.27;100178.34;5137370;27;20426;-74
2021/06/19 05:50:13;;;;;;;8.35;4.47;;;;;;;34.14;32.04;100178.06;5137538;27;20395;-74
2021/06/19 05:52:42;;;;;;;7.55;5.15;;;;;;;33.96;32.33;100178.25;5137457;27;20049;-73
2021/06/19 05:55:16;;;;;;;7.70;4.65;;;;;;;34.02;32.09;100180.06;5118730;27;20047;-73
2021/06/19 05:57:45;;;;;;;10.07;5.15;;;;;;;33.97;32.29;100185.50;5136860;27;20047;-75
2021/06/19 06:00:14;;;;;;;9.27;5.00;;;;;;;34.35;31.79;100186.72;5137280;27;20043;-73
2021/06/19 06:02:44;;;;;;;7.70;4.70;;;;;;;34.25;31.80;100186.53;5136846;27;20047;-84
2021/06/19 06:05:14;;;;;;;5.78;4.30;;;;;;;35.23;30.33;100188.75;5137275;27;20042;-70
2021/06/19 06:07:42;;;;;;;6.72;4.63;;;;;;;36.00;29.03;100189.75;5137001;27;20552;-76
2021/06/19 06:10:11;;;;;;;6.82;4.43;;;;;;;34.87;30.63;100197.59;5137071;27;20537;-77
2021/06/19 06:12:42;;;;;;;6.45;4.35;;;;;;;35.43;29.01;100188.22;5137123;27;20035;-77
2021/06/19 06:15:11;;;;;;;6.20;4.55;;;;;;;35.56;28.64;100187.84;5137062;27;20043;-76
2021/06/19 06:17:39;;;;;;;8.20;4.43;;;;;;;34.75;30.51;100191.31;5137023;27;20051;-75
2021/06/19 06:20:09;;;;;;;8.52;3.97;;;;;;;35.92;28.26;100184.69;5136542;27;20039;-74
2021/06/19 06:22:37;;;;;;;6.00;4.07;;;;;;;36.11;28.51;100177.69;5118807;27;20047;-72
2021/06/19 06:25:06;;;;;;;6.90;4.35;;;;;;;35.39;28.80;100187.06;5135461;27;20047;-71
2021/06/19 06:27:35;;;;;;;5.95;4.32;;;;;;;35.57;29.05;100183.13;5136662;27;20042;-72
2021/06/19 06:30:06;;;;;;;7.43;4.45;;;;;;;35.59;29.27;100180.94;5136118;27;20092;-72
2021/06/19 06:32:36;;;;;;;7.93;4.20;;;;;;;36.13;28.38;100175.47;5136625;27;20047;-72
2021/06/19 06:35:07;;;;;;;7.15;4.10;;;;;;;35.75;28.96;100168.09;5136280;27;20073;-72
2021/06/19 06:37:35;;;;;;;6.50;4.35;;;;;;;35.53;28.36;100170.88;5136572;27;20043;-74
2021/06/19 06:40:06;;;;;;;6.32;4.22;;;;;;;34.32;30.91;100165.09;5136342;27;20122;-75
2021/06/19 06:42:40;;;;;;;9.27;4.28;;;;;;;34.90;29.80;100166.66;5136326;27;20039;-76
2021/06/19 06:45:11;;;;;;;7.75;3.95;;;;;;;34.91;29.73;100168.31;5136028;27;20055;-74
2021/06/19 06:47:40;;;;;;;7.47;3.90;;;;;;;35.01;29.59;100162.94;5136174;27;20396;-69
2021/06/19 06:50:10;;;;;;;7.43;4.03;;;;;;;35.80;28.37;100159.81;5135717;27;20565;-70
2021/06/19 06:52:43;;;;;;;6.45;2.78;;;;;;;34.44;27.80;100152.03;5136349;27;20035;-70
2021/06/19 06:55:12;;;;;;;6.63;2.92;;;;;;;33.81;29.20;100167.72;5135675;27;20100;-70
2021/06/19 06:57:41;;;;;;;5.75;2.95;;;;;;;33.55;29.58;100155.31;5136174;27;20066;-70
2021/06/19 07:00:12;;;;;;;7.20;3.20;;;;;;;33.58;29.20;100157.56;5135559;27;20039;-76
2021/06/19 07:02:42;;;;;;;5.00;2.88;;;;;;;33.40;29.91;100155.00;5136227;27;20076;-69
2021/06/19 07:05:11;;;;;;;9.68;3.25;;;;;;;33.00;30.52;100158.50;5117450;27;20055;-74
2021/06/19 07:07:41;;;;;;;6.53;3.10;;;;;;;31.72;32.53;100161.75;5135940;27;20088;-72
2021/06/19 07:10:13;;;;;;;6.45;3.53;;;;;;;31.08;33.18;100163.16;5135669;27;20070;-72
2021/06/19 07:12:43;;;;;;;8.07;3.53;;;;;;;31.32;33.41;100161.44;5135949;27;20039;-73
2021/06/19 07:15:15;;;;;;;8.30;3.60;;;;;;;31.52;33.18;100155.66;5135818;27;20047;-70
2021/06/19 07:17:44;;;;;;;5.35;3.15;;;;;;;31.18;34.02;100155.22;5135991;27;20129;-70
2021/06/19 07:20:14;;;;;;;5.55;2.88;;;;;;;31.05;33.95;100155.34;5135398;27;20047;-69
2021/06/19 07:22:43;;;;;;;6.30;3.50;;;;;;;30.66;35.01;100162.91;5135755;27;20130;-70
2021/06/19 07:25:14;;;;;;;6.93;3.13;;;;;;;30.73;34.55;100162.88;5135197;27;20111;-70
2021/06/19 07:27:46;;;;;;;5.07;3.33;;;;;;;30.44;34.63;100164.38;5135725;27;20050;-69
2021/06/19 07:30:16;;;;;;;4.43;3.03;;;;;;;30.70;34.67;100152.31;5131486;27;20104;-74
2021/06/19 07:32:45;;;;;;;7.60;3.40;;;;;;;30.95;34.73;100153.09;5135692;27;20059;-76
2021/06/19 07:35:14;;;;;;;7.00;3.33;;;;;;;30.77;34.77;100153.91;5134964;27;20522;-75
2021/06/19 07:37:43;;;;;;;5.28;3.00;;;;;;;30.45;35.36;100152.28;5134792;27;20113;-69
2021/06/19 07:40:13;;;;;;;5.85;2.88;;;;;;;30.76;34.92;100157.75;5135212;27;20085;-72
2021/06/19 07:42:42;;;;;;;6.18;3.20;;;;;;;30.98;34.44;100163.69;5134731;27;20058;-80
2021/06/19 07:45:11;;;;;;;6.93;3.10;;;;;;;30.93;34.18;100151.66;5132670;27;20100;-73
2021/06/19 07:47:41;;;;;;;6.20;3.22;;;;;;;31.12;34.01;100150.59;5134689;27;20121;-74
2021/06/19 07:50:14;;;;;;;5.38;3.22;;;;;;;30.86;34.76;100151.72;5134732;27;20050;-74
2021/06/19 07:52:44;;;;;;;4.75;2.70;;;;;;;31.24;33.77;100143.28;5134493;27;20050;-73
2021/06/19 07:55:14;;;;;;;8.82;2.70;;;;;;;30.94;34.33;100142.31;5134205;27;20039;-74
2021/06/19 07:57:43;;;;;;;5.40;2.70;;;;;;;30.62;34.31;100142.41;5134578;27;20108;-74
2021/06/19 08:00:12;;;;;;;6.35;3.15;;;;;;;30.42;35.21;100145.31;5134383;27;20055;-73
2021/06/19 08:02:44;;;;;;;12.07;3.00;;;;;;;30.44;34.91;100145.09;5133901;27;20136;-74
2021/06/19 08:05:13;;;;;;;8.93;3.03;;;;;;;30.25;35.13;100143.34;5133523;27;20092;-70
2021/06/19 08:07:41;;;;;;;7.03;2.90;;;;;;;30.68;34.61;100133.25;5134386;27;20085;-75
2021/06/19 08:10:11;;;;;;;7.18;3.08;;;;;;;30.77;34.52;100142.91;5134577;27;20523;-72
2021/06/19 08:12:40;;;;;;;6.03;2.90;;;;;;;30.93;35.06;100132.38;5134467;27;20063;-75
2021/06/19 08:15:10;;;;;;;7.03;3.33;;;;;;;31.07;34.57;100131.16;5133960;27;20043;-74
2021/06/19 08:17:39;;;;;;;6.10;3.05;;;;;;;30.74;34.78;100137.88;5134583;27;20552;-75
2021/06/19 08:20:10;;;;;;;6.28;3.03;;;;;;;30.49;35.03;100131.50;5134120;27;20051;-74
2021/06/19 08:22:40;;;;;;;7.03;3.38;;;;;;;30.67;35.38;100133.47;5134685;27;20044;-74
2021/06/19 08:25:10;;;;;;;5.03;3.10;;;;;;;30.87;35.22;100138.78;5139992;27;20621;-74
2021/06/19 08:27:39;;;;;;;5.25;3.25;;;;;;;30.87;34.47;100141.53;5137779;27;20484;-71
2021/06/19 08:30:09;;;;;;;5.18;3.25;;;;;;;30.62;34.84;100131.38;5134261;27;20100;-70
2021/06/19 08:32:37;;;;;;;5.30;2.90;;;;;;;30.66;34.86;100134.56;5134709;27;20036;-70
2021/06/19 08:35:10;;;;;;;7.00;3.20;;;;;;;30.24;35.43;100128.75;5134008;27;20403;-74
2021/06/19 08:37:39;;;;;;;4.95;3.00;;;;;;;30.12;36.29;100125.88;5134190;27;20043;-68
2021/06/19 08:40:10;;;;;;;5.60;3.10;;;;;;;30.30;36.55;100127.00;5134117;27;20400;-70
2021/06/19 08:42:44;;;;;;;5.25;2.88;;;;;;;30.76;35.63;100129.38;5133843;27;20047;-70
2021/06/19 08:45:12;;;;;;;8.95;4.55;;;;;;;30.63;35.63;100135.81;5133719;27;20115;-70
2021/06/19 08:47:40;;;;;;;9.75;6.22;;;;;;;30.78;34.28;100130.81;5133290;27;20092;-72
2021/06/19 08:50:11;;;;;;;10.38;5.72;;;;;;;30.74;35.10;100128.75;5133731;27;20047;-74
2021/06/19 08:52:44;;;;;;;5.07;3.70;;;;;;;31.01;34.88;100132.09;5133739;27;20483;-77
2021/06/19 08:55:15;;;;;;;8.10;3.47;;;;;;;31.23;34.82;100125.06;5133050;27;20104;-80
2021/06/19 08:57:44;;;;;;;8.32;3.60;;;;;;;31.17;34.62;100131.47;5114990;28;20411;-72
2021/06/19 09:00:16;;;;;;;5.95;3.40;;;;;;;30.88;35.34;100116.53;5133502;27;20078;-68
2021/06/19 09:02:48;;;;;;;4.13;3.13;;;;;;;30.85;35.16;100125.25;5133507;28;20045;-73
2021/06/19 09:05:17;;;;;;;6.00;3.28;;;;;;;30.74;35.71;100118.59;5133215;28;20100;-70
2021/06/19 09:07:48;;;;;;;6.60;3.25;;;;;;;30.81;35.42;100118.53;5115572;28;20130;-72
2021/06/19 09:10:22;;;;;;;5.60;3.70;;;;;;;30.39;36.29;100128.41;5133414;28;20088;-68
2021/06/19 09:13:08;;;;;;;9.55;3.63;;;;;;;30.35;36.56;100124.44;5133604;28;20047;-68
2021/06/19 09:15:43;;;;;;;6.13;3.50;;;;;;;30.29;36.95;100122.56;5133053;28;20579;-68
2021/06/19 09:18:18;;;;;;;6.25;3.58;;;;;;;30.18;37.08;100110.38;5117642;28;20132;-73
2021/06/19 09:20:53;;;;;;;6.35;3.50;;;;;;;30.31;37.12;100123.22;5133562;28;20054;-68
2021/06/19 09:23:34;;;;;;;7.22;3.25;;;;;;;30.45;36.37;100122.00;5133572;28;20418;-68
2021/06/19 09:26:12;;;;;;;8.32;3.85;;;;;;;30.44;36.32;100125.84;5133673;28;20409;-67
2021/06/19 09:29:01;;;;;;;5.80;3.25;;;;;;;30.43;36.84;100121.41;5133359;28;20040;-71
2021/06/19 09:31:44;;;;;;;6.80;3.40;;;;;;;30.19;36.65;100126.66;5133510;28;20036;-77
2021/06/19 09:34:14;;;;;;;6.45;3.60;;;;;;;30.50;36.41;100113.94;5118172;28;20240;-74
2021/06/19 09:36:49;;;;;;;7.15;3.67;;;;;;;30.68;36.15;100119.50;5133506;28;20071;-68
2021/06/19 09:39:19;;;;;;;;;;;;;;;30.30;36.34;100118.75;5134826;28;20101;-70
2021/06/19 09:41:52;;;;;;;6.80;3.50;;;;;;;30.12;36.20;100123.13;5133837;28;20018;-71
2021/06/19 09:44:34;;;;;;;7.75;3.70;;;;;;;30.32;36.18;100116.63;5132770;28;20043;-68
2021/06/19 09:47:02;;;;;;;6.07;3.63;;;;;;;30.65;35.76;100111.69;5133138;28;20048;-70
2021/06/19 09:49:33;;;;;;;7.25;3.75;;;;;;;30.93;35.21;100110.34;5133500;28;20039;-68
2021/06/19 09:52:03;;;;;;;6.82;3.60;;;;;;;30.98;35.47;100110.50;5133431;28;20086;-78
2021/06/19 09:54:40;;;;;;;6.57;3.83;;;;;;;30.73;35.99;100107.81;5133619;28;20039;-69
2021/06/19 09:57:11;;;;;;;5.88;3.72;;;;;;;30.71;36.06;100102.53;5133464;28;20052;-69
2021/06/19 09:59:40;;;;;;;6.53;4.18;;;;;;;30.53;36.17;100107.97;5134842;27;20457;-68
2021/06/19 10:02:19;;;;;;;6.63;3.65;;;;;;;30.06;36.28;100104.72;5137243;27;20388;-69
2021/06/19 10:04:51;;;;;;;6.38;4.20;;;;;;;30.56;36.23;100099.25;5137409;27;20484;-69
2021/06/19 10:07:19;;;;;;;5.83;3.80;;;;;;;30.87;35.63;100097.50;5137200;27;20395;-69
2021/06/19 10:09:50;;;;;;;7.13;3.78;;;;;;;30.74;35.94;100102.06;5136972;27;20095;-69
2021/06/19 10:12:21;;;;;;;5.97;3.88;;;;;;;30.63;35.82;100102.78;5137117;27;20039;-69
2021/06/19 10:14:50;;;;;;;6.13;3.90;;;;;;;30.26;36.51;100095.50;5137326;27;20039;-69
2021/06/19 10:17:22;;;;;;;6.40;4.30;;;;;;;30.43;36.64;100091.97;5118334;27;20506;-69
2021/06/19 10:19:51;;;;;;;;;;;;;;;30.65;36.21;100086.91;5119074;27;20054;-69
2021/06/19 10:22:21;;;;;;;7.03;3.90;;;;;;;30.55;36.67;100089.31;5136913;27;20013;-69
2021/06/19 10:24:53;;;;;;;9.25;4.15;;;;;;;30.63;36.41;100091.78;5136844;27;20047;-69
2021/06/19 10:27:24;;;;;;;8.90;4.07;;;;;;;30.72;36.35;100084.94;5136687;27;20043;-69
2021/06/19 10:29:53;;;;;;;7.40;4.10;;;;;;;30.84;36.42;100084.19;5118832;27;20055;-69
2021/06/19 10:32:44;;;;;;;7.47;4.15;;;;;;;30.62;36.44;100079.09;5136524;27;20507;-68
2021/06/19 10:35:15;;;;;;;8.73;3.97;;;;;;;30.59;36.17;100079.53;5136467;27;20046;-68
2021/06/19 10:37:45;;;;;;;8.77;4.33;;;;;;;30.77;36.17;100087.84;5136976;27;20039;-68
2021/06/19 10:40:26;;;;;;;5.50;3.83;;;;;;;30.81;35.09;100081.91;5136181;27;20344;-68
2021/06/19 10:42:56;;;;;;;6.85;3.88;;;;;;;31.01;35.46;100082.50;5136628;27;20046;-68
2021/06/19 10:45:28;;;;;;;7.47;3.85;;;;;;;31.09;34.99;100079.47;5136501;27;20035;-68
2021/06/19 10:48:01;;;;;;;;;;;;;;;31.08;34.67;100075.03;5137253;27;20077;-69
2021/06/19 10:50:30;;;;;;;9.27;4.20;;;;;;;31.44;34.92;100070.53;5136209;27;20337;-69
2021/06/19 10:53:10;;;;;;;5.93;3.90;;;;;;;31.52;33.77;100068.31;5136516;27;20050;-68
2021/06/19 10:55:57;;;;;;;5.60;3.50;;;;;;;31.28;34.80;100072.03;5136293;27;20426;-68
2021/06/19 10:58:26;;;;;;;6.88;3.88;;;;;;;31.33;34.36;100064.75;5135115;27;20051;-69
2021/06/19 11:00:56;;;;;;;6.18;4.43;;;;;;;31.37;34.45;100051.38;5136199;27;20051;-69
2021/06/19 11:03:42;;;;;;;7.38;4.00;;;;;;;31.48;35.38;100058.84;5117318;27;20051;-69
2021/06/19 11:06:20;;;;;;;6.35;3.78;;;;;;;31.43;35.28;100058.69;5135978;27;20057;-69
2021/06/19 11:09:02;;;;;;;5.40;3.92;;;;;;;31.38;35.00;100061.31;5136328;27;20046;-69
2021/06/19 11:11:54;;;;;;;6.68;4.00;;;;;;;31.39;35.13;100053.88;5135814;27;20035;-69
2021/06/19 11:14:54;;;;;;;7.47;4.25;;;;;;;31.83;34.82;100058.13;5135696;27;20118;-69
2021/06/19 11:17:47;;;;;;;5.43;3.80;;;;;;;32.05;33.88;100048.25;5135882;27;20036;-69
2021/06/19 11:20:29;;;;;;;5.72;4.10;;;;;;;31.42;35.23;100045.13;5135886;27;20099;-69
2021/06/19 11:22:59;;;;;;;5.85;3.85;;;;;;;31.36;34.97;100048.81;5135750;27;20465;-69
2021/06/19 11:26:01;;;;;;;6.30;4.20;;;;;;;31.35;34.52;100039.72;5135572;27;20043;-69
2021/06/19 11:28:32;;;;;;;6.87;4.17;;;;;;;31.45;34.19;100033.63;5135446;27;20039;-67
2021/06/19 11:31:17;;;;;;;7.78;3.88;;;;;;;31.67;33.60;100034.81;5135566;27;20104;-68
2021/06/19 11:33:52;;;;;;;7.25;4.18;;;;;;;31.58;33.04;100044.50;5135527;27;20078;-69
2021/06/19 11:36:37;;;;;;;6.95;4.00;;;;;;;31.69;33.30;100040.94;5135415;27;20039;-69
2021/06/19 11:39:11;;;;;;;5.18;3.90;;;;;;;31.77;32.88;100031.50;5135284;27;20042;-69
2021/06/19 11:41:42;;;;;;;8.45;4.05;;;;;;;31.74;33.10;100027.25;5135328;27;20068;-69